sensor_id;sensor_type;location;lat;lon;timestamp;temperature;humidity
17845;DHT22;9047;53.486;10.218;2024-03-02T00:01:57;9.30;99.90
17845;DHT22;9047;53.486;10.218;2024-03-02T00:04:25;9.20;99.90
17845;DHT22;9047;53.486;10.218;2024-03-02T00:06:55;9.20;99.90
17845;DHT22;9047;53.486;10.218;2024-03-02T00:09:24;9.10;99.90
17845;DHT22;9047;53.486;10.218;2024-03-02T00:11:54;9.10;99.90
17845;DHT22;9047;53.486;10.218;2024-03-02T00:14:22;9.00;99.90
17845;DHT22;9047;53.486;10.218;2024-03-02T00:16:51;9.00;99.90
17845;DHT22;9047;53.486;10.218;2024-03-02T00:19:19;9.00;99.90
17845;DHT22;9047;53.486;10.218;2024-03-02T00:21:47;9.00;99.90
17845;DHT22;9047;53.486;10.218;2024-03-02T00:24:21;9.00;99.90
17845;DHT22;9047;53.486;10.218;2024-03-02T00:26:52;8.90;99.90
17845;DHT22;9047;53.486;10.218;2024-03-02T00:29:20;8.90;99.90
17845;DHT22;9047;53.486;10.218;2024-03-02T00:31:50;8.90;99.90
17845;DHT22;9047;53.486;10.218;2024-03-02T00:34:17;8.80;99.90
17845;DHT22;9047;53.486;10.218;2024-03-02T00:36:47;8.80;99.90
17845;DHT22;9047;53.486;10.218;2024-03-02T00:39:15;8.80;99.90
17845;DHT22;9047;53.486;10.218;2024-03-02T00:41:45;8.70;99.90
17845;DHT22;9047;53.486;10.218;2024-03-02T00:44:15;8.70;99.90
17845;DHT22;9047;53.486;10.218;2024-03-02T00:46:44;8.60;99.90
17845;DHT22;9047;53.486;10.218;2024-03-02T00:49:17;8.60;99.90
17845;DHT22;9047;53.486;10.218;2024-03-02T00:51:46;8.60;99.90
17845;DHT22;9047;53.486;10.218;2024-03-02T00:54:14;8.60;99.90
17845;DHT22;9047;53.486;10.218;2024-03-02T00:56:42;8.50;99.90
17845;DHT22;9047;53.486;10.218;2024-03-02T00:59:11;8.60;99.90
17845;DHT22;9047;53.486;10.218;2024-03-02T01:01:43;8.60;99.90
17845;DHT22;9047;53.486;10.218;2024-03-02T01:04:10;8.60;99.90
17845;DHT22;9047;53.486;10.218;2024-03-02T01:06:39;8.60;99.90
17845;DHT22;9047;53.486;10.218;2024-03-02T01:09:07;8.60;99.90
17845;DHT22;9047;53.486;10.218;2024-03-02T01:11:34;8.60;99.90
17845;DHT22;9047;53.486;10.218;2024-03-02T01:14:03;8.60;99.90
17845;DHT22;9047;53.486;10.218;2024-03-02T01:16:32;8.60;99.90
17845;DHT22;9047;53.486;10.218;2024-03-02T01:19:03;8.60;99.90
17845;DHT22;9047;53.486;10.218;2024-03-02T01:21:38;8.60;99.90
17845;DHT22;9047;53.486;10.218;2024-03-02T01:24:07;8.60;99.90
17845;DHT22;9047;53.486;10.218;2024-03-02T01:26:34;8.60;99.90
17845;DHT22;9047;53.486;10.218;2024-03-02T01:29:01;8.60;99.90
17845;DHT22;9047;53.486;10.218;2024-03-02T01:31:29;8.60;99.90
17845;DHT22;9047;53.486;10.218;2024-03-02T01:33:56;8.60;99.90
17845;DHT22;9047;53.486;10.218;2024-03-02T01:36:25;8.60;99.90
17845;DHT22;9047;53.486;10.218;2024-03-02T01:38:52;8.60;99.90
17845;DHT22;9047;53.486;10.218;2024-03-02T01:41:19;8.60;99.90
17845;DHT22;9047;53.486;10.218;2024-03-02T01:43:46;8.50;99.90
17845;DHT22;9047;53.486;10.218;2024-03-02T01:46:13;8.50;99.90
17845;DHT22;9047;53.486;10.218;2024-03-02T01:48:43;8.50;99.90
17845;DHT22;9047;53.486;10.218;2024-03-02T01:51:10;8.50;99.90
17845;DHT22;9047;53.486;10.218;2024-03-02T01:53:39;8.50;99.90
17845;DHT22;9047;53.486;10.218;2024-03-02T01:56:07;8.50;99.90
17845;DHT22;9047;53.486;10.218;2024-03-02T01:58:34;8.40;99.90
17845;DHT22;9047;53.486;10.218;2024-03-02T02:01:03;8.50;99.90
17845;DHT22;9047;53.486;10.218;2024-03-02T02:03:30;8.50;99.90
17845;DHT22;9047;53.486;10.218;2024-03-02T02:05:59;8.50;99.90
17845;DHT22;9047;53.486;10.218;2024-03-02T02:08:27;8.40;99.90
17845;DHT22;9047;53.486;10.218;2024-03-02T02:10:57;8.40;99.90
17845;DHT22;9047;53.486;10.218;2024-03-02T02:13:26;8.40;99.90
17845;DHT22;9047;53.486;10.218;2024-03-02T02:15:53;8.40;99.90
17845;DHT22;9047;53.486;10.218;2024-03-02T02:18:27;8.40;99.90
17845;DHT22;9047;53.486;10.218;2024-03-02T02:20:54;8.40;99.90
17845;DHT22;9047;53.486;10.218;2024-03-02T02:23:35;8.40;99.90
17845;DHT22;9047;53.486;10.218;2024-03-02T02:26:04;8.40;99.90
17845;DHT22;9047;53.486;10.218;2024-03-02T02:28:37;8.30;99.90
17845;DHT22;9047;53.486;10.218;2024-03-02T02:31:12;8.30;99.90
17845;DHT22;9047;53.486;10.218;2024-03-02T02:33:39;8.30;99.90
17845;DHT22;9047;53.486;10.218;2024-03-02T02:36:07;8.30;99.90
17845;DHT22;9047;53.486;10.218;2024-03-02T02:38:40;8.20;99.90
17845;DHT22;9047;53.486;10.218;2024-03-02T02:41:08;8.30;99.90
17845;DHT22;9047;53.486;10.218;2024-03-02T02:43:41;8.30;99.90
17845;DHT22;9047;53.486;10.218;2024-03-02T02:46:09;8.20;99.90
17845;DHT22;9047;53.486;10.218;2024-03-02T02:48:37;8.20;99.90
17845;DHT22;9047;53.486;10.218;2024-03-02T02:51:04;8.20;99.90
17845;DHT22;9047;53.486;10.218;2024-03-02T02:53:41;8.20;99.90
17845;DHT22;9047;53.486;10.218;2024-03-02T02:56:08;8.20;99.90
17845;DHT22;9047;53.486;10.218;2024-03-02T02:58:40;8.20;99.90
17845;DHT22;9047;53.486;10.218;2024-03-02T03:01:07;8.20;99.90
17845;DHT22;9047;53.486;10.218;2024-03-02T03:03:41;8.20;99.90
17845;DHT22;9047;53.486;10.218;2024-03-02T03:06:08;8.20;99.90
17845;DHT22;9047;53.486;10.218;2024-03-02T03:08:39;8.20;99.90
17845;DHT22;9047;53.486;10.218;2024-03-02T03:11:06;8.20;99.90
17845;DHT22;9047;53.486;10.218;2024-03-02T03:13:34;8.20;99.90
17845;DHT22;9047;53.486;10.218;2024-03-02T03:16:02;8.20;99.90
17845;DHT22;9047;53.486;10.218;2024-03-02T03:18:29;8.20;99.90
17845;DHT22;9047;53.486;10.218;2024-03-02T03:21:03;8.10;99.90
17845;DHT22;9047;53.486;10.218;2024-03-02T03:23:31;8.10;99.90
17845;DHT22;9047;53.486;10.218;2024-03-02T03:26:00;8.10;99.90
17845;DHT22;9047;53.486;10.218;2024-03-02T03:28:30;8.10;99.90
17845;DHT22;9047;53.486;10.218;2024-03-02T03:30:58;8.20;99.90
17845;DHT22;9047;53.486;10.218;2024-03-02T03:33:31;8.10;99.90
17845;DHT22;9047;53.486;10.218;2024-03-02T03:35:58;8.10;99.90
17845;DHT22;9047;53.486;10.218;2024-03-02T03:38:25;8.10;99.90
17845;DHT22;9047;53.486;10.218;2024-03-02T03:40:52;8.10;99.90
17845;DHT22;9047;53.486;10.218;2024-03-02T03:43:24;8.10;99.90
17845;DHT22;9047;53.486;10.218;2024-03-02T03:45:53;8.10;99.90
17845;DHT22;9047;53.486;10.218;2024-03-02T03:48:20;8.10;99.90
17845;DHT22;9047;53.486;10.218;2024-03-02T03:50:48;8.20;99.90
17845;DHT22;9047;53.486;10.218;2024-03-02T03:53:17;8.10;99.90
17845;DHT22;9047;53.486;10.218;2024-03-02T03:55:44;8.10;99.90
17845;DHT22;9047;53.486;10.218;2024-03-02T03:58:13;8.10;99.90
17845;DHT22;9047;53.486;10.218;2024-03-02T04:00:44;8.10;99.90
17845;DHT22;9047;53.486;10.218;2024-03-02T04:03:12;8.10;99.90
17845;DHT22;9047;53.486;10.218;2024-03-02T04:05:39;8.10;99.90
17845;DHT22;9047;53.486;10.218;2024-03-02T04:08:07;8.10;99.90
17845;DHT22;9047;53.486;10.218;2024-03-02T04:10:35;8.10;99.90
17845;DHT22;9047;53.486;10.218;2024-03-02T04:13:03;8.10;99.90
17845;DHT22;9047;53.486;10.218;2024-03-02T04:15:31;8.10;99.90
17845;DHT22;9047;53.486;10.218;2024-03-02T04:18:00;8.10;99.90
17845;DHT22;9047;53.486;10.218;2024-03-02T04:20:32;8.10;99.90
17845;DHT22;9047;53.486;10.218;2024-03-02T04:23:04;8.10;99.90
17845;DHT22;9047;53.486;10.218;2024-03-02T04:25:34;8.20;99.90
17845;DHT22;9047;53.486;10.218;2024-03-02T04:28:01;8.20;99.90
17845;DHT22;9047;53.486;10.218;2024-03-02T04:30:29;8.20;99.90
17845;DHT22;9047;53.486;10.218;2024-03-02T04:32:56;8.20;99.90
17845;DHT22;9047;53.486;10.218;2024-03-02T04:35:25;8.20;99.90
17845;DHT22;9047;53.486;10.218;2024-03-02T04:37:53;8.20;99.90
17845;DHT22;9047;53.486;10.218;2024-03-02T04:40:20;8.20;99.90
17845;DHT22;9047;53.486;10.218;2024-03-02T04:42:48;8.20;99.90
17845;DHT22;9047;53.486;10.218;2024-03-02T04:45:20;8.10;99.90
17845;DHT22;9047;53.486;10.218;2024-03-02T04:47:47;8.10;99.90
17845;DHT22;9047;53.486;10.218;2024-03-02T04:50:14;8.10;99.90
17845;DHT22;9047;53.486;10.218;2024-03-02T04:52:44;8.10;99.90
17845;DHT22;9047;53.486;10.218;2024-03-02T04:55:10;8.10;99.90
17845;DHT22;9047;53.486;10.218;2024-03-02T04:58:11;8.10;99.90
17845;DHT22;9047;53.486;10.218;2024-03-02T05:00:38;8.00;99.90
17845;DHT22;9047;53.486;10.218;2024-03-02T05:03:05;8.00;99.90
17845;DHT22;9047;53.486;10.218;2024-03-02T05:05:35;8.00;99.90
17845;DHT22;9047;53.486;10.218;2024-03-02T05:08:07;7.90;99.90
17845;DHT22;9047;53.486;10.218;2024-03-02T05:10:38;7.90;99.90
17845;DHT22;9047;53.486;10.218;2024-03-02T05:13:06;7.90;99.90
17845;DHT22;9047;53.486;10.218;2024-03-02T05:15:32;7.90;99.90
17845;DHT22;9047;53.486;10.218;2024-03-02T05:18:02;7.80;99.90
17845;DHT22;9047;53.486;10.218;2024-03-02T05:20:31;7.90;99.90
17845;DHT22;9047;53.486;10.218;2024-03-02T05:22:58;7.90;99.90
17845;DHT22;9047;53.486;10.218;2024-03-02T05:25:27;7.90;99.90
17845;DHT22;9047;53.486;10.218;2024-03-02T05:27:57;7.90;99.90
17845;DHT22;9047;53.486;10.218;2024-03-02T05:30:24;7.90;99.90
17845;DHT22;9047;53.486;10.218;2024-03-02T05:32:51;7.80;99.90
17845;DHT22;9047;53.486;10.218;2024-03-02T05:35:20;7.80;99.90
17845;DHT22;9047;53.486;10.218;2024-03-02T05:37:47;7.80;99.90
17845;DHT22;9047;53.486;10.218;2024-03-02T05:40:15;7.80;99.90
17845;DHT22;9047;53.486;10.218;2024-03-02T05:42:45;7.80;99.90
17845;DHT22;9047;53.486;10.218;2024-03-02T05:45:13;7.80;99.90
17845;DHT22;9047;53.486;10.218;2024-03-02T05:47:43;7.70;99.90
17845;DHT22;9047;53.486;10.218;2024-03-02T05:50:10;7.70;99.90
17845;DHT22;9047;53.486;10.218;2024-03-02T05:52:37;7.80;99.90
17845;DHT22;9047;53.486;10.218;2024-03-02T05:55:07;7.80;99.90
17845;DHT22;9047;53.486;10.218;2024-03-02T05:57:36;7.80;99.90
17845;DHT22;9047;53.486;10.218;2024-03-02T06:00:23;7.70;99.90
17845;DHT22;9047;53.486;10.218;2024-03-02T06:02:50;7.80;99.90
17845;DHT22;9047;53.486;10.218;2024-03-02T06:05:17;7.70;99.90
17845;DHT22;9047;53.486;10.218;2024-03-02T06:07:44;7.70;99.90
17845;DHT22;9047;53.486;10.218;2024-03-02T06:10:13;7.70;99.90
17845;DHT22;9047;53.486;10.218;2024-03-02T06:12:43;7.70;99.90
17845;DHT22;9047;53.486;10.218;2024-03-02T06:15:10;7.80;99.90
17845;DHT22;9047;53.486;10.218;2024-03-02T06:17:39;7.80;99.90
17845;DHT22;9047;53.486;10.218;2024-03-02T06:20:09;7.70;99.90
17845;DHT22;9047;53.486;10.218;2024-03-02T06:22:38;7.80;99.90
17845;DHT22;9047;53.486;10.218;2024-03-02T06:25:05;7.80;99.90
17845;DHT22;9047;53.486;10.218;2024-03-02T06:27:35;7.80;99.90
17845;DHT22;9047;53.486;10.218;2024-03-02T06:30:06;7.80;99.90
17845;DHT22;9047;53.486;10.218;2024-03-02T06:32:35;7.80;99.90
17845;DHT22;9047;53.486;10.218;2024-03-02T06:35:04;7.80;99.90
17845;DHT22;9047;53.486;10.218;2024-03-02T06:37:35;7.80;99.90
17845;DHT22;9047;53.486;10.218;2024-03-02T06:40:02;7.80;99.90
17845;DHT22;9047;53.486;10.218;2024-03-02T06:42:31;7.90;99.90
17845;DHT22;9047;53.486;10.218;2024-03-02T06:45:00;7.80;99.90
17845;DHT22;9047;53.486;10.218;2024-03-02T06:47:27;7.90;99.90
17845;DHT22;9047;53.486;10.218;2024-03-02T06:49:54;7.90;99.90
17845;DHT22;9047;53.486;10.218;2024-03-02T06:52:24;7.90;99.90
17845;DHT22;9047;53.486;10.218;2024-03-02T06:54:54;8.00;99.90
17845;DHT22;9047;53.486;10.218;2024-03-02T06:57:21;7.90;99.90
17845;DHT22;9047;53.486;10.218;2024-03-02T06:59:49;8.00;99.90
17845;DHT22;9047;53.486;10.218;2024-03-02T07:02:19;8.00;99.90
17845;DHT22;9047;53.486;10.218;2024-03-02T07:04:46;8.10;99.90
17845;DHT22;9047;53.486;10.218;2024-03-02T07:07:17;8.10;99.90
17845;DHT22;9047;53.486;10.218;2024-03-02T07:09:48;8.10;99.90
17845;DHT22;9047;53.486;10.218;2024-03-02T07:12:18;8.20;99.90
17845;DHT22;9047;53.486;10.218;2024-03-02T07:14:45;8.20;99.90
17845;DHT22;9047;53.486;10.218;2024-03-02T07:17:37;8.30;99.90
17845;DHT22;9047;53.486;10.218;2024-03-02T07:20:05;8.30;99.90
17845;DHT22;9047;53.486;10.218;2024-03-02T07:22:35;8.40;99.90
17845;DHT22;9047;53.486;10.218;2024-03-02T07:25:06;8.50;99.90
17845;DHT22;9047;53.486;10.218;2024-03-02T07:27:34;8.50;99.90
17845;DHT22;9047;53.486;10.218;2024-03-02T07:30:03;8.60;99.90
17845;DHT22;9047;53.486;10.218;2024-03-02T07:32:34;8.60;99.90
17845;DHT22;9047;53.486;10.218;2024-03-02T07:35:05;8.70;99.90
17845;DHT22;9047;53.486;10.218;2024-03-02T07:37:33;8.80;99.90
17845;DHT22;9047;53.486;10.218;2024-03-02T07:40:00;8.80;99.90
17845;DHT22;9047;53.486;10.218;2024-03-02T07:42:30;8.90;99.90
17845;DHT22;9047;53.486;10.218;2024-03-02T07:45:01;9.00;99.90
17845;DHT22;9047;53.486;10.218;2024-03-02T07:47:38;9.10;99.90
17845;DHT22;9047;53.486;10.218;2024-03-02T07:50:08;9.20;99.90
17845;DHT22;9047;53.486;10.218;2024-03-02T07:52:37;9.20;99.90
17845;DHT22;9047;53.486;10.218;2024-03-02T07:55:06;9.30;99.90
17845;DHT22;9047;53.486;10.218;2024-03-02T07:57:38;9.40;99.90
17845;DHT22;9047;53.486;10.218;2024-03-02T08:00:07;9.50;99.90
17845;DHT22;9047;53.486;10.218;2024-03-02T08:02:35;9.60;99.90
17845;DHT22;9047;53.486;10.218;2024-03-02T08:05:02;9.70;99.90
17845;DHT22;9047;53.486;10.218;2024-03-02T08:07:31;9.80;99.90
17845;DHT22;9047;53.486;10.218;2024-03-02T08:10:01;9.90;99.90
17845;DHT22;9047;53.486;10.218;2024-03-02T08:12:28;10.00;99.90
17845;DHT22;9047;53.486;10.218;2024-03-02T08:15:07;10.10;99.90
17845;DHT22;9047;53.486;10.218;2024-03-02T08:17:54;10.20;99.90
17845;DHT22;9047;53.486;10.218;2024-03-02T08:20:24;10.30;99.90
17845;DHT22;9047;53.486;10.218;2024-03-02T08:22:54;10.40;99.90
17845;DHT22;9047;53.486;10.218;2024-03-02T08:25:22;10.40;99.90
17845;DHT22;9047;53.486;10.218;2024-03-02T08:27:49;10.50;99.90
17845;DHT22;9047;53.486;10.218;2024-03-02T08:30:18;10.60;99.90
17845;DHT22;9047;53.486;10.218;2024-03-02T08:32:45;10.70;99.90
17845;DHT22;9047;53.486;10.218;2024-03-02T08:35:14;10.60;99.90
17845;DHT22;9047;53.486;10.218;2024-03-02T08:37:41;10.60;99.90
17845;DHT22;9047;53.486;10.218;2024-03-02T08:40:13;10.70;99.90
17845;DHT22;9047;53.486;10.218;2024-03-02T08:42:41;10.70;99.90
17845;DHT22;9047;53.486;10.218;2024-03-02T08:45:10;10.70;99.90
17845;DHT22;9047;53.486;10.218;2024-03-02T08:50:15;10.90;99.90
17845;DHT22;9047;53.486;10.218;2024-03-02T08:52:44;11.00;99.90
17845;DHT22;9047;53.486;10.218;2024-03-02T08:55:14;11.00;99.90
17845;DHT22;9047;53.486;10.218;2024-03-02T08:57:42;11.10;99.90
17845;DHT22;9047;53.486;10.218;2024-03-02T09:00:10;11.20;99.90
17845;DHT22;9047;53.486;10.218;2024-03-02T09:02:37;11.30;99.90
17845;DHT22;9047;53.486;10.218;2024-03-02T09:05:12;11.30;99.90
17845;DHT22;9047;53.486;10.218;2024-03-02T09:07:42;11.40;99.90
17845;DHT22;9047;53.486;10.218;2024-03-02T09:10:13;11.50;99.90
17845;DHT22;9047;53.486;10.218;2024-03-02T09:12:43;11.50;99.90
17845;DHT22;9047;53.486;10.218;2024-03-02T09:15:13;11.60;99.90
17845;DHT22;9047;53.486;10.218;2024-03-02T09:17:58;11.60;99.90
17845;DHT22;9047;53.486;10.218;2024-03-02T09:20:30;11.60;99.90
17845;DHT22;9047;53.486;10.218;2024-03-02T09:22:58;11.70;99.90
17845;DHT22;9047;53.486;10.218;2024-03-02T09:25:25;11.70;99.90
17845;DHT22;9047;53.486;10.218;2024-03-02T09:27:52;11.70;99.90
17845;DHT22;9047;53.486;10.218;2024-03-02T09:30:20;11.80;99.90
17845;DHT22;9047;53.486;10.218;2024-03-02T09:32:48;11.80;99.90
17845;DHT22;9047;53.486;10.218;2024-03-02T09:35:32;11.80;99.90
17845;DHT22;9047;53.486;10.218;2024-03-02T09:38:06;11.90;99.90
17845;DHT22;9047;53.486;10.218;2024-03-02T09:40:35;12.00;99.90
17845;DHT22;9047;53.486;10.218;2024-03-02T09:43:03;12.10;99.90
17845;DHT22;9047;53.486;10.218;2024-03-02T09:45:31;12.20;99.90
17845;DHT22;9047;53.486;10.218;2024-03-02T09:47:59;12.40;99.90
17845;DHT22;9047;53.486;10.218;2024-03-02T09:50:27;12.50;99.90
17845;DHT22;9047;53.486;10.218;2024-03-02T09:52:56;12.70;99.90
17845;DHT22;9047;53.486;10.218;2024-03-02T09:55:28;12.80;99.90
17845;DHT22;9047;53.486;10.218;2024-03-02T09:57:56;12.90;99.90
17845;DHT22;9047;53.486;10.218;2024-03-02T10:00:23;13.00;99.90
17845;DHT22;9047;53.486;10.218;2024-03-02T10:02:55;13.10;99.90
17845;DHT22;9047;53.486;10.218;2024-03-02T10:05:25;13.10;99.90
17845;DHT22;9047;53.486;10.218;2024-03-02T10:07:59;13.20;99.90
17845;DHT22;9047;53.486;10.218;2024-03-02T10:10:36;13.20;99.90
17845;DHT22;9047;53.486;10.218;2024-03-02T10:13:26;13.40;99.90
17845;DHT22;9047;53.486;10.218;2024-03-02T10:16:11;13.40;99.90
17845;DHT22;9047;53.486;10.218;2024-03-02T10:18:45;13.50;99.90
17845;DHT22;9047;53.486;10.218;2024-03-02T10:21:14;13.50;99.90
17845;DHT22;9047;53.486;10.218;2024-03-02T10:23:43;13.60;99.90
17845;DHT22;9047;53.486;10.218;2024-03-02T10:26:36;13.60;99.90
17845;DHT22;9047;53.486;10.218;2024-03-02T10:29:08;13.60;99.90
17845;DHT22;9047;53.486;10.218;2024-03-02T10:31:37;13.60;99.90
17845;DHT22;9047;53.486;10.218;2024-03-02T10:34:05;13.80;99.90
17845;DHT22;9047;53.486;10.218;2024-03-02T10:36:35;13.80;99.90
17845;DHT22;9047;53.486;10.218;2024-03-02T10:39:03;14.00;99.90
17845;DHT22;9047;53.486;10.218;2024-03-02T10:41:36;14.00;99.90
17845;DHT22;9047;53.486;10.218;2024-03-02T10:44:08;14.10;99.90
17845;DHT22;9047;53.486;10.218;2024-03-02T10:46:42;14.20;99.90
17845;DHT22;9047;53.486;10.218;2024-03-02T10:49:19;14.30;99.90
17845;DHT22;9047;53.486;10.218;2024-03-02T10:51:48;14.30;99.90
17845;DHT22;9047;53.486;10.218;2024-03-02T10:57:33;14.50;99.90
17845;DHT22;9047;53.486;10.218;2024-03-02T11:00:11;14.60;99.90
17845;DHT22;9047;53.486;10.218;2024-03-02T11:02:51;14.60;99.90
17845;DHT22;9047;53.486;10.218;2024-03-02T11:05:26;14.60;99.90
17845;DHT22;9047;53.486;10.218;2024-03-02T11:08:00;14.70;99.90
17845;DHT22;9047;53.486;10.218;2024-03-02T11:10:35;14.70;99.90
17845;DHT22;9047;53.486;10.218;2024-03-02T11:13:14;14.70;99.90
17845;DHT22;9047;53.486;10.218;2024-03-02T11:15:43;14.80;99.90
17845;DHT22;9047;53.486;10.218;2024-03-02T11:18:10;14.80;99.90
17845;DHT22;9047;53.486;10.218;2024-03-02T11:20:39;14.80;99.90
17845;DHT22;9047;53.486;10.218;2024-03-02T11:23:07;14.90;99.90
17845;DHT22;9047;53.486;10.218;2024-03-02T11:25:37;14.90;99.90
17845;DHT22;9047;53.486;10.218;2024-03-02T11:28:06;14.90;99.90
17845;DHT22;9047;53.486;10.218;2024-03-02T11:30:52;15.00;99.90
17845;DHT22;9047;53.486;10.218;2024-03-02T11:33:28;15.00;99.90
17845;DHT22;9047;53.486;10.218;2024-03-02T11:36:03;15.00;99.90
17845;DHT22;9047;53.486;10.218;2024-03-02T11:38:36;15.00;99.90
17845;DHT22;9047;53.486;10.218;2024-03-02T11:41:06;15.00;99.90
17845;DHT22;9047;53.486;10.218;2024-03-02T11:43:41;15.00;99.90
17845;DHT22;9047;53.486;10.218;2024-03-02T11:46:11;14.90;99.90
17845;DHT22;9047;53.486;10.218;2024-03-02T11:48:43;15.00;99.90
17845;DHT22;9047;53.486;10.218;2024-03-02T11:51:11;14.90;99.90
17845;DHT22;9047;53.486;10.218;2024-03-02T11:53:39;14.80;99.90
17845;DHT22;9047;53.486;10.218;2024-03-02T11:56:07;14.80;99.90
17845;DHT22;9047;53.486;10.218;2024-03-02T11:58:37;14.70;99.90
17845;DHT22;9047;53.486;10.218;2024-03-02T12:01:07;14.60;99.90
17845;DHT22;9047;53.486;10.218;2024-03-02T12:03:35;14.60;99.90
17845;DHT22;9047;53.486;10.218;2024-03-02T12:06:03;14.50;99.90
17845;DHT22;9047;53.486;10.218;2024-03-02T12:08:31;14.40;99.90
17845;DHT22;9047;53.486;10.218;2024-03-02T12:10:59;14.40;99.90
17845;DHT22;9047;53.486;10.218;2024-03-02T12:13:27;14.40;99.90
17845;DHT22;9047;53.486;10.218;2024-03-02T12:15:54;14.40;99.90
17845;DHT22;9047;53.486;10.218;2024-03-02T12:18:21;14.40;99.90
17845;DHT22;9047;53.486;10.218;2024-03-02T12:20:53;14.40;99.90
17845;DHT22;9047;53.486;10.218;2024-03-02T12:23:22;14.40;99.90
17845;DHT22;9047;53.486;10.218;2024-03-02T12:25:52;14.50;99.90
17845;DHT22;9047;53.486;10.218;2024-03-02T12:28:20;14.50;99.90
17845;DHT22;9047;53.486;10.218;2024-03-02T12:30:48;14.50;99.90
17845;DHT22;9047;53.486;10.218;2024-03-02T12:33:17;14.50;99.90
17845;DHT22;9047;53.486;10.218;2024-03-02T12:35:45;14.60;99.90
17845;DHT22;9047;53.486;10.218;2024-03-02T12:38:16;14.70;99.90
17845;DHT22;9047;53.486;10.218;2024-03-02T12:40:43;14.80;99.90
17845;DHT22;9047;53.486;10.218;2024-03-02T12:43:11;14.90;99.90
17845;DHT22;9047;53.486;10.218;2024-03-02T12:45:42;14.90;99.90
17845;DHT22;9047;53.486;10.218;2024-03-02T12:48:11;14.90;99.90
17845;DHT22;9047;53.486;10.218;2024-03-02T12:50:44;14.90;99.90
17845;DHT22;9047;53.486;10.218;2024-03-02T12:53:16;15.00;99.90
17845;DHT22;9047;53.486;10.218;2024-03-02T12:55:43;15.00;99.90
17845;DHT22;9047;53.486;10.218;2024-03-02T12:58:18;15.00;99.90
17845;DHT22;9047;53.486;10.218;2024-03-02T13:00:45;15.00;99.90
17845;DHT22;9047;53.486;10.218;2024-03-02T13:03:14;15.00;99.90
17845;DHT22;9047;53.486;10.218;2024-03-02T13:05:49;15.20;99.90
17845;DHT22;9047;53.486;10.218;2024-03-02T13:08:20;15.20;99.90
17845;DHT22;9047;53.486;10.218;2024-03-02T13:10:54;15.20;99.90
17845;DHT22;9047;53.486;10.218;2024-03-02T13:13:23;15.20;99.90
17845;DHT22;9047;53.486;10.218;2024-03-02T13:15:55;15.20;99.90
17845;DHT22;9047;53.486;10.218;2024-03-02T13:18:23;15.20;99.90
17845;DHT22;9047;53.486;10.218;2024-03-02T13:20:50;15.20;99.90
17845;DHT22;9047;53.486;10.218;2024-03-02T13:23:17;15.20;99.90
17845;DHT22;9047;53.486;10.218;2024-03-02T13:25:51;15.20;99.90
17845;DHT22;9047;53.486;10.218;2024-03-02T13:28:18;15.20;99.90
17845;DHT22;9047;53.486;10.218;2024-03-02T13:30:47;15.20;99.90
17845;DHT22;9047;53.486;10.218;2024-03-02T13:33:14;15.10;99.90
17845;DHT22;9047;53.486;10.218;2024-03-02T13:35:51;15.10;99.90
17845;DHT22;9047;53.486;10.218;2024-03-02T13:38:21;15.00;99.90
17845;DHT22;9047;53.486;10.218;2024-03-02T13:40:53;15.00;99.90
17845;DHT22;9047;53.486;10.218;2024-03-02T13:43:22;15.00;99.90
17845;DHT22;9047;53.486;10.218;2024-03-02T13:45:49;15.00;99.90
17845;DHT22;9047;53.486;10.218;2024-03-02T13:48:18;14.90;99.90
17845;DHT22;9047;53.486;10.218;2024-03-02T13:50:46;14.90;99.90
17845;DHT22;9047;53.486;10.218;2024-03-02T13:53:16;14.80;99.90
17845;DHT22;9047;53.486;10.218;2024-03-02T13:55:50;14.80;99.90
17845;DHT22;9047;53.486;10.218;2024-03-02T13:58:17;14.70;99.90
17845;DHT22;9047;53.486;10.218;2024-03-02T14:00:51;14.70;99.90
17845;DHT22;9047;53.486;10.218;2024-03-02T14:03:18;14.60;99.90
17845;DHT22;9047;53.486;10.218;2024-03-02T14:05:48;14.70;99.90
17845;DHT22;9047;53.486;10.218;2024-03-02T14:08:18;14.60;99.90
17845;DHT22;9047;53.486;10.218;2024-03-02T14:10:46;14.60;99.90
17845;DHT22;9047;53.486;10.218;2024-03-02T14:13:18;14.60;99.90
17845;DHT22;9047;53.486;10.218;2024-03-02T14:15:45;14.70;99.90
17845;DHT22;9047;53.486;10.218;2024-03-02T14:18:12;14.80;99.90
17845;DHT22;9047;53.486;10.218;2024-03-02T14:20:41;14.80;99.90
17845;DHT22;9047;53.486;10.218;2024-03-02T14:23:09;14.90;99.90
17845;DHT22;9047;53.486;10.218;2024-03-02T14:25:38;15.00;99.90
17845;DHT22;9047;53.486;10.218;2024-03-02T14:28:05;15.10;99.90
17845;DHT22;9047;53.486;10.218;2024-03-02T14:30:37;15.20;99.90
17845;DHT22;9047;53.486;10.218;2024-03-02T14:33:06;15.40;99.90
17845;DHT22;9047;53.486;10.218;2024-03-02T14:35:36;15.40;99.90
17845;DHT22;9047;53.486;10.218;2024-03-02T14:38:04;15.60;99.90
17845;DHT22;9047;53.486;10.218;2024-03-02T14:40:32;15.70;99.90
17845;DHT22;9047;53.486;10.218;2024-03-02T14:42:59;15.80;99.90
17845;DHT22;9047;53.486;10.218;2024-03-02T14:45:26;16.00;99.90
17845;DHT22;9047;53.486;10.218;2024-03-02T14:48:11;16.20;99.90
17845;DHT22;9047;53.486;10.218;2024-03-02T14:50:39;16.50;99.90
17845;DHT22;9047;53.486;10.218;2024-03-02T14:53:06;17.10;99.90
17845;DHT22;9047;53.486;10.218;2024-03-02T14:55:33;17.30;99.90
17845;DHT22;9047;53.486;10.218;2024-03-02T14:58:03;17.20;99.90
17845;DHT22;9047;53.486;10.218;2024-03-02T15:00:30;17.00;99.90
17845;DHT22;9047;53.486;10.218;2024-03-02T15:02:59;16.80;99.90
17845;DHT22;9047;53.486;10.218;2024-03-02T15:05:31;16.50;99.90
17845;DHT22;9047;53.486;10.218;2024-03-02T15:07:58;16.30;99.90
17845;DHT22;9047;53.486;10.218;2024-03-02T15:10:28;16.10;99.90
17845;DHT22;9047;53.486;10.218;2024-03-02T15:12:58;15.90;99.90
17845;DHT22;9047;53.486;10.218;2024-03-02T15:15:26;15.70;99.90
17845;DHT22;9047;53.486;10.218;2024-03-02T15:17:56;15.50;99.90
17845;DHT22;9047;53.486;10.218;2024-03-02T15:20:23;15.30;99.90
17845;DHT22;9047;53.486;10.218;2024-03-02T15:22:53;15.10;99.90
17845;DHT22;9047;53.486;10.218;2024-03-02T15:25:19;14.90;99.90
17845;DHT22;9047;53.486;10.218;2024-03-02T15:27:47;14.80;99.90
17845;DHT22;9047;53.486;10.218;2024-03-02T15:30:19;14.70;99.90
17845;DHT22;9047;53.486;10.218;2024-03-02T15:32:46;14.40;99.90
17845;DHT22;9047;53.486;10.218;2024-03-02T15:35:15;14.40;99.90
17845;DHT22;9047;53.486;10.218;2024-03-02T15:37:44;14.20;99.90
17845;DHT22;9047;53.486;10.218;2024-03-02T15:40:15;14.10;99.90
17845;DHT22;9047;53.486;10.218;2024-03-02T15:42:42;14.10;99.90
17845;DHT22;9047;53.486;10.218;2024-03-02T15:45:09;14.00;99.90
17845;DHT22;9047;53.486;10.218;2024-03-02T15:47:43;13.90;99.90
17845;DHT22;9047;53.486;10.218;2024-03-02T15:50:12;13.80;99.90
17845;DHT22;9047;53.486;10.218;2024-03-02T15:52:43;13.70;99.90
17845;DHT22;9047;53.486;10.218;2024-03-02T15:55:11;13.60;99.90
17845;DHT22;9047;53.486;10.218;2024-03-02T15:57:40;13.40;99.90
17845;DHT22;9047;53.486;10.218;2024-03-02T16:00:09;13.30;99.90